Time;durP1;ratioP1;P1;durP2;ratioP2;P2;SDS_P1;SDS_P2;PMS_P1;PMS_P2;Temp;Humidity;BMP_temperature;BMP_pressure;BME280_temperature;BME280_humidity;BME280_pressure;Samples;Min_cycle;Max_cycle;Signal;HPM_P1;HPM_P2
2021/01/20 00:01:41;;;;;;;7.50;4.30;;;7.30;91.80;;;;;;5120480;28;20055;-78
2021/01/20 00:04:07;;;;;;;9.52;4.60;;;7.30;91.80;;;;;;5120782;28;20040;-78
2021/01/20 00:06:33;;;;;;;8.05;4.25;;;7.30;91.80;;;;;;5138586;28;20035;-78
2021/01/20 00:08:58;;;;;;;8.18;4.25;;;7.30;91.70;;;;;;5138261;28;20429;-77
2021/01/20 00:11:25;;;;;;;7.22;3.63;;;7.30;91.70;;;;;;5138856;27;20084;-77
2021/01/20 00:13:52;;;;;;;6.45;3.70;;;7.30;91.70;;;;;;5138454;28;20037;-77
2021/01/20 00:16:19;;;;;;;6.90;3.70;;;7.30;91.70;;;;;;5138891;28;20031;-77
2021/01/20 00:18:44;;;;;;;6.13;3.30;;;7.20;91.60;;;;;;5137400;28;20042;-78
2021/01/20 00:21:10;;;;;;;5.70;3.13;;;7.30;91.70;;;;;;5120780;28;20398;-77
2021/01/20 00:23:35;;;;;;;6.65;3.22;;;7.20;91.70;;;;;;5138411;28;20035;-78
2021/01/20 00:26:01;;;;;;;6.05;3.45;;;7.30;91.70;;;;;;5120807;28;20043;-77
2021/01/20 00:28:27;;;;;;;6.88;3.50;;;7.20;91.60;;;;;;5137016;28;20084;-77
2021/01/20 00:30:56;;;;;;;6.03;3.40;;;7.20;91.60;;;;;;5139288;28;20039;-77
2021/01/20 00:33:22;;;;;;;6.28;3.50;;;7.20;91.70;;;;;;5138532;28;20135;-78
2021/01/20 00:35:48;;;;;;;5.70;3.40;;;7.10;91.70;;;;;;5141690;28;20082;-77
2021/01/20 00:38:14;;;;;;;5.30;3.42;;;7.10;91.70;;;;;;5136528;28;20039;-78
2021/01/20 00:40:40;;;;;;;5.80;3.50;;;7.10;91.70;;;;;;5119875;28;20050;-77
2021/01/20 00:43:05;;;;;;;6.25;3.20;;;7.10;91.70;;;;;;5135934;28;20039;-78
2021/01/20 00:45:31;;;;;;;4.97;2.90;;;7.00;91.70;;;;;;5138898;28;20043;-78
2021/01/20 00:47:57;;;;;;;4.53;2.45;;;7.10;91.80;;;;;;5121122;28;20061;-78
2021/01/20 00:50:22;;;;;;;5.82;3.55;;;7.10;91.80;;;;;;5140231;28;20141;-78
2021/01/20 00:52:48;;;;;;;7.45;3.28;;;7.10;91.80;;;;;;5139889;28;20035;-78
2021/01/20 00:55:15;;;;;;;5.05;3.00;;;7.00;91.70;;;;;;5137349;28;20158;-78
2021/01/20 00:57:41;;;;;;;4.82;2.70;;;7.10;91.70;;;;;;5119672;28;20148;-77
2021/01/20 01:00:08;;;;;;;5.78;2.80;;;7.10;91.70;;;;;;5138487;28;20068;-78
2021/01/20 01:02:36;;;;;;;6.38;3.08;;;7.00;91.70;;;;;;5102534;28;20125;-78
2021/01/20 01:05:03;;;;;;;3.80;2.33;;;7.00;91.70;;;;;;5137458;28;20042;-78
2021/01/20 01:07:29;;;;;;;5.85;3.22;;;7.00;91.60;;;;;;5121588;28;20042;-79
2021/01/20 01:09:55;;;;;;;6.57;2.83;;;7.00;91.60;;;;;;5118672;28;20137;-78
2021/01/20 01:12:21;;;;;;;5.85;3.10;;;7.00;91.60;;;;;;5118800;28;20062;-78
2021/01/20 01:14:47;;;;;;;5.53;2.60;;;7.00;91.60;;;;;;5138031;28;20394;-78
2021/01/20 01:17:12;;;;;;;5.75;2.70;;;7.00;91.50;;;;;;5137435;28;20039;-78
2021/01/20 01:19:38;;;;;;;5.07;2.67;;;7.00;91.50;;;;;;5138331;28;20149;-79
2021/01/20 01:22:04;;;;;;;6.30;3.10;;;7.10;91.50;;;;;;5136940;28;20130;-78
2021/01/20 01:24:29;;;;;;;6.80;3.55;;;7.10;91.50;;;;;;5117806;28;20688;-78
2021/01/20 01:26:55;;;;;;;6.45;3.85;;;7.10;91.30;;;;;;5118435;28;20130;-77
2021/01/20 01:29:21;;;;;;;5.65;2.88;;;7.10;91.30;;;;;;5134826;28;20118;-77
2021/01/20 01:31:46;;;;;;;5.70;3.08;;;7.10;91.30;;;;;;5118565;28;20439;-77
2021/01/20 01:34:12;;;;;;;4.72;2.58;;;7.10;91.30;;;;;;5117704;28;20534;-77
2021/01/20 01:36:38;;;;;;;4.40;2.40;;;7.10;91.30;;;;;;5117461;28;20039;-77
2021/01/20 01:39:05;;;;;;;5.15;2.45;;;7.10;91.30;;;;;;5135878;28;20053;-77
2021/01/20 01:41:30;;;;;;;5.97;2.53;;;7.30;91.40;;;;;;5136826;28;20043;-78
2021/01/20 01:43:56;;;;;;;4.35;2.47;;;7.10;91.30;;;;;;5136270;28;20076;-78
2021/01/20 01:46:22;;;;;;;3.78;2.30;;;7.10;91.20;;;;;;5135147;28;20042;-77
2021/01/20 01:48:51;;;;;;;4.63;2.25;;;7.10;91.20;;;;;;5133906;28;20031;-76
2021/01/20 01:51:17;;;;;;;4.95;2.58;;;7.10;91.20;;;;;;5135938;28;20504;-77
2021/01/20 01:53:43;;;;;;;5.32;2.40;;;7.20;91.30;;;;;;5134814;28;20122;-77
2021/01/20 01:56:08;;;;;;;3.47;1.95;;;7.10;91.20;;;;;;5116189;28;20043;-77
2021/01/20 01:58:34;;;;;;;4.50;2.67;;;7.20;91.20;;;;;;5117622;28;20512;-77
2021/01/20 02:01:01;;;;;;;4.53;2.58;;;7.10;91.20;;;;;;5137552;28;20137;-77
2021/01/20 02:03:28;;;;;;;7.22;3.13;;;7.10;91.20;;;;;;5118882;28;20060;-77
2021/01/20 02:05:53;;;;;;;5.68;2.83;;;7.10;91.20;;;;;;5136921;28;20051;-78
2021/01/20 02:08:19;;;;;;;5.00;2.70;;;7.00;91.10;;;;;;5135952;28;20037;-78
2021/01/20 02:10:45;;;;;;;5.55;2.63;;;7.00;91.10;;;;;;5117397;28;20052;-77
2021/01/20 02:13:32;;;;;;;5.00;2.80;;;7.00;91.10;;;;;;5134812;28;20043;-77
2021/01/20 02:16:15;;;;;;;4.45;2.30;;;7.10;91.20;;;;;;5137112;28;20092;-78
2021/01/20 02:18:42;;;;;;;4.25;2.30;;;7.10;91.20;;;;;;5134057;28;20155;-77
2021/01/20 02:21:32;;;;;;;4.45;2.30;;;7.00;91.20;;;;;;5117355;28;20107;-77
2021/01/20 02:24:01;;;;;;;4.68;2.17;;;7.00;91.20;;;;;;5135934;28;20047;-77
2021/01/20 02:26:55;;;;;;;5.43;2.33;;;7.00;91.20;;;;;;5135549;28;20035;-77
2021/01/20 02:29:39;;;;;;;3.80;2.13;;;7.00;91.20;;;;;;5119977;28;20039;-77
2021/01/20 02:32:06;;;;;;;3.40;1.83;;;7.00;91.20;;;;;;5135122;28;20059;-78
2021/01/20 02:34:34;;;;;;;4.65;2.20;;;7.00;91.20;;;;;;5117420;27;20074;-77
2021/01/20 02:37:02;;;;;;;3.90;2.28;;;7.00;91.20;;;;;;5133559;28;20091;-78
2021/01/20 02:39:29;;;;;;;4.07;2.20;;;7.00;91.10;;;;;;5118683;28;20380;-77
2021/01/20 02:42:04;;;;;;;3.50;1.83;;;7.10;91.20;;;;;;5134975;28;20394;-77
2021/01/20 02:44:34;;;;;;;4.95;2.45;;;7.10;91.20;;;;;;5136830;28;20081;-78
2021/01/20 02:47:00;;;;;;;4.70;2.50;;;7.10;91.10;;;;;;5135783;28;20047;-77
2021/01/20 02:49:25;;;;;;;6.15;2.67;;;7.00;91.10;;;;;;5101646;28;20483;-77
2021/01/20 02:51:59;;;;;;;5.90;2.85;;;7.10;91.10;;;;;;5135060;28;20069;-77
2021/01/20 02:54:27;;;;;;;4.35;2.55;;;7.10;91.20;;;;;;5136689;28;20364;-78
2021/01/20 02:56:56;;;;;;;4.82;2.60;;;7.10;91.10;;;;;;5115493;28;20048;-78
2021/01/20 02:59:25;;;;;;;4.97;2.50;;;7.10;91.10;;;;;;5113933;28;20051;-77
2021/01/20 03:01:55;;;;;;;4.35;2.33;;;7.10;91.10;;;;;;5114842;28;20039;-77
2021/01/20 03:04:22;;;;;;;5.22;2.67;;;7.10;91.10;;;;;;5097344;28;20103;-78
2021/01/20 03:06:50;;;;;;;5.53;2.80;;;7.20;91.10;;;;;;5114250;28;20075;-78
2021/01/20 03:09:16;;;;;;;5.18;2.40;;;7.10;91.00;;;;;;5114494;28;20036;-77
2021/01/20 03:11:45;;;;;;;3.53;1.90;;;7.20;91.00;;;;;;5112830;28;20043;-77
2021/01/20 03:14:11;;;;;;;4.32;2.40;;;7.20;91.10;;;;;;5096261;28;20040;-77
2021/01/20 03:16:37;;;;;;;3.90;2.22;;;7.20;91.10;;;;;;5114521;28;20073;-77
2021/01/20 03:19:03;;;;;;;6.25;2.50;;;7.20;91.10;;;;;;5114934;28;20036;-78
2021/01/20 03:21:28;;;;;;;6.07;2.55;;;7.20;91.10;;;;;;5096512;28;20046;-78
2021/01/20 03:23:54;;;;;;;5.03;2.47;;;7.10;91.00;;;;;;5113499;28;20118;-77
2021/01/20 03:26:19;;;;;;;5.43;2.20;;;7.20;91.10;;;;;;5113189;28;20032;-78
2021/01/20 03:28:45;;;;;;;3.55;2.08;;;7.20;91.40;;;;;;5113782;28;20068;-77
2021/01/20 03:31:11;;;;;;;4.20;2.00;;;7.20;91.10;;;;;;5113738;28;20036;-77
2021/01/20 03:33:36;;;;;;;4.68;1.98;;;7.20;91.10;;;;;;5114225;28;20067;-77
2021/01/20 03:36:02;;;;;;;3.45;1.95;;;7.20;91.10;;;;;;5112508;28;20380;-77
2021/01/20 03:38:28;;;;;;;3.38;1.77;;;7.20;91.10;;;;;;5095544;28;20040;-78
2021/01/20 03:40:54;;;;;;;2.75;1.67;;;7.20;91.10;;;;;;5114469;28;20036;-78
2021/01/20 03:43:19;;;;;;;2.92;1.60;;;7.10;91.10;;;;;;5113303;28;20502;-78
2021/01/20 03:45:45;;;;;;;3.03;1.70;;;7.10;91.10;;;;;;5112780;28;20386;-78
2021/01/20 03:48:11;;;;;;;2.83;1.60;;;7.20;91.20;;;;;;5115518;28;20036;-78
2021/01/20 03:50:36;;;;;;;3.08;1.52;;;7.20;91.20;;;;;;5115942;28;20031;-77
2021/01/20 03:53:02;;;;;;;3.53;1.80;;;7.30;91.20;;;;;;5117694;28;20032;-78
2021/01/20 03:55:28;;;;;;;3.30;1.95;;;7.20;91.20;;;;;;5098153;28;20044;-77
2021/01/20 03:57:53;;;;;;;3.75;1.80;;;7.30;91.10;;;;;;5117252;28;20129;-78
2021/01/20 04:00:20;;;;;;;3.38;1.85;;;7.30;91.10;;;;;;5117789;28;20079;-79
2021/01/20 04:02:45;;;;;;;4.60;2.15;;;7.30;91.10;;;;;;5116957;28;20079;-78
2021/01/20 04:05:12;;;;;;;4.47;2.17;;;7.30;91.00;;;;;;5117249;28;20095;-78
2021/01/20 04:07:37;;;;;;;3.35;1.92;;;7.40;91.00;;;;;;5117300;28;20495;-78
2021/01/20 04:10:07;;;;;;;3.85;1.90;;;7.40;90.90;;;;;;5098316;28;20036;-78
2021/01/20 04:12:35;;;;;;;3.20;1.75;;;7.50;90.90;;;;;;5081870;28;20042;-78
2021/01/20 04:15:02;;;;;;;3.33;1.90;;;7.50;90.90;;;;;;5117000;28;20043;-79
2021/01/20 04:17:28;;;;;;;4.40;2.10;;;7.60;90.90;;;;;;5116650;28;20069;-77
2021/01/20 04:19:54;;;;;;;3.28;1.63;;;7.60;90.90;;;;;;5116960;28;20047;-79
2021/01/20 04:22:19;;;;;;;3.58;2.00;;;7.50;90.80;;;;;;5097130;28;20447;-78
2021/01/20 04:24:45;;;;;;;3.70;1.63;;;7.60;90.80;;;;;;5098187;28;20044;-78
2021/01/20 04:27:11;;;;;;;2.28;1.27;;;7.60;90.80;;;;;;5117818;28;20097;-78
2021/01/20 04:29:36;;;;;;;5.10;1.95;;;7.60;90.80;;;;;;5118842;28;20507;-79
2021/01/20 04:32:02;;;;;;;3.95;1.83;;;7.60;90.70;;;;;;5119021;28;20395;-78
2021/01/20 04:34:28;;;;;;;4.07;1.88;;;7.60;90.70;;;;;;5118564;28;20103;-78
2021/01/20 04:36:53;;;;;;;2.55;1.60;;;7.70;90.70;;;;;;5098578;28;20036;-79
2021/01/20 04:39:19;;;;;;;2.80;1.65;;;7.70;90.70;;;;;;5117233;28;20086;-79
2021/01/20 04:41:45;;;;;;;3.60;1.85;;;7.70;90.70;;;;;;5117580;28;20046;-77
2021/01/20 04:44:10;;;;;;;3.72;1.70;;;7.70;90.70;;;;;;5115343;28;20487;-77
2021/01/20 04:46:37;;;;;;;2.78;1.42;;;7.70;90.60;;;;;;5116904;28;20032;-77
2021/01/20 04:49:06;;;;;;;3.65;1.80;;;7.70;90.60;;;;;;5117045;28;20035;-77
2021/01/20 04:51:36;;;;;;;5.18;1.92;;;7.70;90.60;;;;;;5098720;28;20035;-78
2021/01/20 04:54:05;;;;;;;4.60;1.83;;;7.70;90.60;;;;;;5115347;28;20509;-77
2021/01/20 04:56:31;;;;;;;3.25;1.80;;;7.80;90.60;;;;;;5117114;28;20068;-78
2021/01/20 04:58:56;;;;;;;3.45;1.90;;;7.80;90.50;;;;;;5115533;28;20046;-79
2021/01/20 05:01:23;;;;;;;2.78;1.70;;;7.90;90.60;;;;;;5115280;28;20031;-79
2021/01/20 05:03:50;;;;;;;2.83;1.60;;;7.90;90.50;;;;;;5097987;28;20043;-78
2021/01/20 05:06:16;;;;;;;2.35;1.40;;;7.90;90.50;;;;;;5095224;28;20139;-77
2021/01/20 05:08:42;;;;;;;3.10;1.48;;;7.80;90.50;;;;;;5115235;28;20071;-78
2021/01/20 05:11:08;;;;;;;3.05;1.50;;;7.90;90.50;;;;;;5097151;28;20032;-77
2021/01/20 05:13:34;;;;;;;2.20;1.42;;;7.90;90.50;;;;;;5115407;28;20028;-77
2021/01/20 05:15:59;;;;;;;2.85;1.55;;;7.90;90.50;;;;;;5115637;28;20047;-77
2021/01/20 05:18:25;;;;;;;3.60;1.60;;;7.90;90.50;;;;;;5097427;28;20517;-78
2021/01/20 05:20:51;;;;;;;3.17;1.83;;;7.90;90.50;;;;;;5115517;28;20040;-78
2021/01/20 05:23:23;;;;;;;4.15;1.98;;;7.80;90.50;;;;;;5115789;28;20089;-79
2021/01/20 05:25:50;;;;;;;3.13;1.60;;;7.90;90.50;;;;;;5115901;28;20057;-78
2021/01/20 05:28:19;;;;;;;2.72;1.40;;;7.90;90.50;;;;;;5117273;28;20093;-79
2021/01/20 05:30:48;;;;;;;3.03;1.73;;;7.90;90.50;;;;;;5115982;28;20040;-78
2021/01/20 05:33:16;;;;;;;3.55;1.67;;;7.90;90.40;;;;;;5115762;28;20040;-79
2021/01/20 05:35:44;;;;;;;3.33;1.63;;;7.90;90.40;;;;;;5116225;28;20155;-78
2021/01/20 05:38:10;;;;;;;3.28;1.70;;;7.90;90.40;;;;;;5097858;28;20059;-79
2021/01/20 05:40:37;;;;;;;3.35;1.77;;;7.90;90.40;;;;;;5099384;28;20051;-78
2021/01/20 05:43:04;;;;;;;2.95;1.70;;;8.00;90.40;;;;;;5116858;28;20080;-78
2021/01/20 05:45:30;;;;;;;3.33;1.67;;;7.90;90.30;;;;;;5098078;28;20047;-77
2021/01/20 05:48:01;;;;;;;3.10;1.80;;;7.90;90.30;;;;;;5116689;28;20092;-78
2021/01/20 05:50:27;;;;;;;2.38;1.35;;;7.90;90.30;;;;;;5116568;28;20039;-77
2021/01/20 05:53:10;;;;;;;2.78;1.50;;;8.00;90.30;;;;;;5115318;28;20044;-77
2021/01/20 05:55:38;;;;;;;2.42;1.27;;;7.90;90.30;;;;;;5116788;28;20545;-77
2021/01/20 05:58:06;;;;;;;3.22;1.45;;;8.00;90.30;;;;;;5115784;28;20051;-77
2021/01/20 06:00:32;;;;;;;2.63;1.50;;;7.90;90.20;;;;;;5115773;28;20452;-77
2021/01/20 06:02:58;;;;;;;2.55;1.45;;;7.90;90.20;;;;;;5097362;28;20069;-77
2021/01/20 06:05:25;;;;;;;2.47;1.35;;;8.00;90.30;;;;;;5115991;28;20067;-77
2021/01/20 06:07:52;;;;;;;2.35;1.10;;;8.00;90.20;;;;;;5100130;28;20035;-77
2021/01/20 06:10:20;;;;;;;3.03;1.70;;;8.00;90.20;;;;;;5098499;28;20127;-78
2021/01/20 06:12:48;;;;;;;2.45;1.55;;;8.00;90.20;;;;;;5096590;28;20043;-78
2021/01/20 06:15:13;;;;;;;1.60;1.30;;;8.00;90.10;;;;;;5099402;28;20416;-78
2021/01/20 06:17:42;;;;;;;2.97;1.75;;;8.10;90.10;;;;;;5098213;28;20130;-77
2021/01/20 06:20:09;;;;;;;2.88;1.38;;;8.00;90.00;;;;;;5115628;28;20043;-78
2021/01/20 06:22:45;;;;;;;3.05;1.52;;;8.00;90.00;;;;;;5115212;28;20147;-79
2021/01/20 06:25:17;;;;;;;2.97;1.30;;;8.10;90.00;;;;;;5096552;28;20058;-78
2021/01/20 06:27:54;;;;;;;2.85;1.50;;;8.10;90.00;;;;;;5115966;28;20046;-79
2021/01/20 06:30:29;;;;;;;2.10;1.30;;;8.10;90.00;;;;;;5113992;28;20462;-77
2021/01/20 06:32:56;;;;;;;3.17;1.45;;;8.00;90.20;;;;;;5115283;28;20046;-77
2021/01/20 06:35:35;;;;;;;2.67;1.40;;;8.10;89.90;;;;;;5115943;28;20403;-79
2021/01/20 06:38:01;;;;;;;3.38;1.55;;;8.10;89.80;;;;;;5114818;28;20052;-77
2021/01/20 06:40:44;;;;;;;3.20;1.70;;;8.20;89.60;;;;;;5116078;28;20147;-77
2021/01/20 06:43:36;;;;;;;2.92;1.70;;;8.20;89.50;;;;;;5114441;28;20043;-76
2021/01/20 06:46:21;;;;;;;2.72;1.38;;;8.20;89.50;;;;;;5095076;28;20071;-77
2021/01/20 06:49:07;;;;;;;1.90;1.27;;;8.20;89.50;;;;;;5114537;28;20048;-77
2021/01/20 06:51:34;;;;;;;2.72;1.48;;;8.20;89.50;;;;;;5099670;28;20035;-77
2021/01/20 06:54:07;;;;;;;2.67;1.60;;;8.20;89.40;;;;;;5113371;28;20051;-78
2021/01/20 06:56:42;;;;;;;2.17;1.38;;;8.20;89.30;;;;;;5113994;28;20377;-76
2021/01/20 06:59:18;;;;;;;3.45;1.92;;;8.20;89.20;;;;;;5097317;28;20036;-77
2021/01/20 07:02:09;;;;;;;3.83;1.80;;;8.30;89.10;;;;;;5114094;28;20040;-76
2021/01/20 07:04:55;;;;;;;2.20;1.27;;;8.30;88.90;;;;;;5113612;28;20047;-77
2021/01/20 07:07:52;;;;;;;2.75;1.45;;;8.30;88.90;;;;;;5077781;28;20051;-77
2021/01/20 07:10:19;;;;;;;2.92;1.50;;;8.30;88.90;;;;;;5114439;28;20045;-78
2021/01/20 07:13:14;;;;;;;2.60;1.48;;;8.20;88.90;;;;;;5113448;28;20426;-77
2021/01/20 07:15:44;;;;;;;2.80;1.50;;;8.30;88.90;;;;;;5111921;28;20047;-76
2021/01/20 07:18:12;;;;;;;2.85;1.50;;;8.20;88.80;;;;;;5112960;28;20368;-75
2021/01/20 07:20:40;;;;;;;2.15;1.08;;;8.30;88.80;;;;;;5112019;28;20043;-76
2021/01/20 07:23:06;;;;;;;2.17;1.02;;;8.30;88.80;;;;;;5115698;28;20043;-76
2021/01/20 07:25:32;;;;;;;1.30;1.00;;;8.30;88.90;;;;;;5115856;28;20040;-76
2021/01/20 07:27:58;;;;;;;2.42;1.33;;;8.30;88.80;;;;;;5098031;28;20067;-76
2021/01/20 07:30:24;;;;;;;2.22;1.30;;;8.30;88.80;;;;;;5080637;28;20078;-77
2021/01/20 07:32:50;;;;;;;2.45;1.30;;;8.30;88.80;;;;;;5116326;28;20140;-76
2021/01/20 07:35:28;;;;;;;2.08;1.30;;;8.30;88.80;;;;;;5115525;28;20049;-76
2021/01/20 07:38:03;;;;;;;2.15;1.33;;;8.30;88.80;;;;;;5114314;28;20479;-76
2021/01/20 07:40:31;;;;;;;1.85;1.17;;;8.30;88.70;;;;;;5115962;28;20398;-76
2021/01/20 07:42:56;;;;;;;2.90;1.30;;;8.40;88.70;;;;;;5097334;28;20043;-76
2021/01/20 07:45:32;;;;;;;2.90;1.60;;;8.30;88.60;;;;;;5115370;28;20067;-76
2021/01/20 07:47:58;;;;;;;3.03;1.42;;;8.30;88.60;;;;;;5115416;28;20047;-76
2021/01/20 07:50:42;;;;;;;2.47;1.20;;;8.30;88.60;;;;;;5115320;28;20475;-76
2021/01/20 07:53:13;;;;;;;2.90;1.50;;;8.40;88.60;;;;;;5097038;28;20040;-76
2021/01/20 07:55:39;;;;;;;2.47;1.20;;;8.40;88.60;;;;;;5097032;28;20043;-77
2021/01/20 07:58:05;;;;;;;2.70;1.38;;;8.40;88.60;;;;;;5095541;28;20130;-76
2021/01/20 08:00:39;;;;;;;2.70;1.30;;;8.40;88.70;;;;;;5115379;28;20051;-76
2021/01/20 08:03:05;;;;;;;1.90;1.17;;;8.40;88.60;;;;;;5116237;28;20040;-75
2021/01/20 08:05:32;;;;;;;2.97;1.30;;;8.40;88.70;;;;;;5115719;28;20112;-77
2021/01/20 08:08:08;;;;;;;1.85;1.13;;;8.40;88.70;;;;;;5119506;28;20039;-78
2021/01/20 08:10:34;;;;;;;2.17;1.20;;;8.40;88.80;;;;;;5118937;28;20043;-78
2021/01/20 08:13:01;;;;;;;2.60;1.30;;;8.40;88.90;;;;;;5099805;28;20039;-79
2021/01/20 08:15:30;;;;;;;2.00;1.33;;;8.40;88.90;;;;;;5119189;28;20043;-78
2021/01/20 08:17:57;;;;;;;2.95;1.67;;;8.30;88.90;;;;;;5116779;28;20044;-80
2021/01/20 08:20:24;;;;;;;4.03;1.63;;;8.40;89.00;;;;;;5116892;28;20035;-80
2021/01/20 08:22:51;;;;;;;2.40;1.35;;;8.40;89.00;;;;;;5116251;28;20126;-79
2021/01/20 08:25:21;;;;;;;2.20;1.30;;;8.40;89.00;;;;;;5099146;28;20035;-79
2021/01/20 08:27:48;;;;;;;2.38;1.15;;;8.40;89.00;;;;;;5116731;28;20051;-76
2021/01/20 08:30:34;;;;;;;1.85;1.27;;;8.40;89.00;;;;;;5115290;28;20028;-76
2021/01/20 08:33:03;;;;;;;2.00;1.38;;;8.40;89.10;;;;;;5115788;28;20036;-79
2021/01/20 08:35:34;;;;;;;1.92;1.10;;;8.40;89.10;;;;;;5103253;28;20071;-79
2021/01/20 08:38:00;;;;;;;1.35;0.80;;;8.50;89.20;;;;;;5118634;28;20043;-78
2021/01/20 08:40:26;;;;;;;2.33;1.08;;;8.40;89.10;;;;;;5104060;28;20043;-78
2021/01/20 08:42:52;;;;;;;1.88;1.13;;;8.30;89.10;;;;;;5119693;28;20100;-74
2021/01/20 08:45:31;;;;;;;1.80;1.10;;;8.40;89.30;;;;;;5114758;28;20040;-77
2021/01/20 08:48:00;;;;;;;1.08;0.93;;;8.40;89.50;;;;;;5114744;28;20105;-74
2021/01/20 08:50:37;;;;;;;1.55;0.95;;;8.40;89.50;;;;;;5115743;28;20032;-77
2021/01/20 08:53:10;;;;;;;1.90;0.98;;;8.40;89.60;;;;;;5114606;28;20502;-76
2021/01/20 08:55:38;;;;;;;1.60;1.00;;;8.30;89.60;;;;;;5116450;28;20042;-77
2021/01/20 08:58:31;;;;;;;1.55;1.08;;;8.40;89.70;;;;;;5097025;28;20043;-75
2021/01/20 09:01:03;;;;;;;2.45;1.00;;;8.40;89.70;;;;;;5114372;28;20122;-76
2021/01/20 09:03:32;;;;;;;1.88;1.00;;;8.40;89.70;;;;;;5098363;28;20040;-77
2021/01/20 09:06:00;;;;;;;1.23;0.73;;;8.50;89.80;;;;;;5115281;28;20044;-76
2021/01/20 09:08:29;;;;;;;1.42;0.82;;;8.40;89.70;;;;;;5096070;28;20044;-75
2021/01/20 09:10:58;;;;;;;2.13;1.15;;;8.50;90.10;;;;;;5114381;28;20051;-75
2021/01/20 09:13:24;;;;;;;1.85;1.10;;;8.50;89.70;;;;;;5114053;28;20436;-75
2021/01/20 09:15:52;;;;;;;1.45;0.90;;;8.50;89.70;;;;;;5114612;28;20035;-76
2021/01/20 09:18:18;;;;;;;1.63;0.88;;;8.60;89.70;;;;;;5096627;28;20126;-75
2021/01/20 09:20:44;;;;;;;1.17;0.73;;;8.60;89.70;;;;;;5116441;28;20039;-78
2021/01/20 09:23:11;;;;;;;2.00;1.00;;;8.60;89.60;;;;;;5115916;28;20511;-77
2021/01/20 09:25:37;;;;;;;1.85;1.05;;;8.70;89.50;;;;;;5115918;28;20495;-76
2021/01/20 09:28:03;;;;;;;1.55;1.00;;;8.70;89.40;;;;;;5114448;28;20120;-74
2021/01/20 09:30:30;;;;;;;1.63;1.05;;;8.80;89.30;;;;;;5114446;28;20141;-75
2021/01/20 09:32:56;;;;;;;1.20;0.90;;;8.90;89.20;;;;;;5113744;28;20039;-75
2021/01/20 09:35:22;;;;;;;1.08;0.80;;;8.90;89.10;;;;;;5114183;28;20054;-74
2021/01/20 09:37:50;;;;;;;1.77;1.02;;;8.90;88.90;;;;;;5113907;28;20043;-74
2021/01/20 09:40:18;;;;;;;2.05;1.13;;;9.00;88.80;;;;;;5114120;28;20039;-75
2021/01/20 09:42:47;;;;;;;0.85;0.80;;;9.00;88.60;;;;;;5113582;28;20067;-73
2021/01/20 09:45:14;;;;;;;1.73;0.90;;;9.10;88.60;;;;;;5112919;28;20135;-74
2021/01/20 09:47:43;;;;;;;1.35;0.80;;;9.10;88.60;;;;;;5113534;28;20059;-74
2021/01/20 09:50:11;;;;;;;1.25;0.75;;;9.20;88.60;;;;;;5113533;28;20031;-75
2021/01/20 09:52:37;;;;;;;1.13;0.80;;;9.20;88.50;;;;;;5118325;28;20047;-80
2021/01/20 09:55:05;;;;;;;1.45;0.80;;;9.20;88.40;;;;;;5116176;28;20045;-77
2021/01/20 09:57:30;;;;;;;1.08;0.73;;;9.30;88.40;;;;;;5118070;28;20055;-79
2021/01/20 09:59:56;;;;;;;1.05;0.70;;;9.40;88.30;;;;;;5101110;28;20048;-78
2021/01/20 10:02:22;;;;;;;0.90;0.60;;;9.40;88.10;;;;;;5097010;28;20157;-79
2021/01/20 10:04:48;;;;;;;2.58;0.90;;;9.50;88.00;;;;;;5096601;28;20089;-78
2021/01/20 10:07:15;;;;;;;0.93;0.60;;;9.50;87.90;;;;;;5119195;28;20039;-79
2021/01/20 10:09:41;;;;;;;0.70;0.60;;;9.50;87.90;;;;;;5117544;28;20058;-79
2021/01/20 10:12:08;;;;;;;0.82;0.57;;;9.50;87.70;;;;;;5117140;28;20031;-78
2021/01/20 10:14:34;;;;;;;0.68;0.52;;;9.70;88.40;;;;;;5100738;28;20051;-78
2021/01/20 10:17:00;;;;;;;1.27;0.77;;;9.70;87.60;;;;;;5116397;28;20135;-79
2021/01/20 10:19:26;;;;;;;1.13;0.80;;;9.70;87.40;;;;;;5093491;28;20040;-78
2021/01/20 10:21:52;;;;;;;1.88;0.90;;;9.80;87.20;;;;;;5113296;28;20137;-78
2021/01/20 10:24:17;;;;;;;1.08;0.73;;;9.80;87.10;;;;;;5094996;28;20436;-78
2021/01/20 10:26:44;;;;;;;1.88;0.65;;;9.80;86.90;;;;;;5113198;28;20123;-76
2021/01/20 10:29:10;;;;;;;0.90;0.73;;;9.80;86.80;;;;;;5113470;28;20160;-78
2021/01/20 10:31:37;;;;;;;1.00;0.70;;;9.80;86.60;;;;;;5096548;28;20085;-78
2021/01/20 10:34:04;;;;;;;1.45;0.90;;;9.80;86.40;;;;;;5115838;28;20043;-80
2021/01/20 10:36:31;;;;;;;1.33;0.88;;;9.80;86.20;;;;;;5098018;28;20040;-77
2021/01/20 10:38:57;;;;;;;1.92;0.90;;;9.80;86.20;;;;;;5113670;28;20046;-78
2021/01/20 10:41:24;;;;;;;2.35;0.90;;;9.70;86.20;;;;;;5114036;28;20040;-79
2021/01/20 10:43:52;;;;;;;1.02;0.70;;;9.80;86.20;;;;;;5117144;28;20050;-79
2021/01/20 10:46:19;;;;;;;1.15;0.80;;;9.70;86.20;;;;;;5114251;28;20035;-79
2021/01/20 10:48:45;;;;;;;1.02;0.80;;;9.80;86.10;;;;;;5094693;28;20123;-77
2021/01/20 10:51:14;;;;;;;1.13;0.88;;;9.80;86.10;;;;;;5113320;28;20384;-79
2021/01/20 10:53:40;;;;;;;1.40;0.90;;;9.80;86.00;;;;;;5098713;28;20032;-80
2021/01/20 10:56:38;;;;;;;1.48;0.90;;;9.80;85.90;;;;;;5089226;28;20028;-80
2021/01/20 10:59:04;;;;;;;1.00;0.82;;;9.80;85.80;;;;;;5056286;28;20068;-78
2021/01/20 11:01:43;;;;;;;0.85;0.65;;;9.90;85.80;;;;;;5053210;28;20048;-80
2021/01/20 11:04:12;;;;;;;2.05;0.80;;;9.90;85.60;;;;;;5072963;28;20040;-78
2021/01/20 11:06:38;;;;;;;1.15;0.85;;;9.90;85.50;;;;;;5070409;28;20056;-78
2021/01/20 11:09:04;;;;;;;1.30;0.70;;;10.00;85.20;;;;;;5071523;28;20432;-77
2021/01/20 11:11:29;;;;;;;1.60;0.73;;;9.90;85.10;;;;;;5072744;28;20051;-79
2021/01/20 11:14:00;;;;;;;0.95;0.60;;;10.00;85.10;;;;;;5073670;28;20140;-79
2021/01/20 11:16:26;;;;;;;1.80;0.80;;;10.00;84.80;;;;;;5071969;28;20522;-78
2021/01/20 11:19:12;;;;;;;0.98;0.85;;;10.00;84.70;;;;;;5043216;28;20056;-78
2021/01/20 11:21:38;;;;;;;1.02;0.70;;;10.00;84.50;;;;;;5038601;28;20048;-77
2021/01/20 11:24:04;;;;;;;0.90;0.80;;;10.00;84.40;;;;;;5071681;28;20044;-77
2021/01/20 11:26:30;;;;;;;0.77;0.63;;;10.10;84.30;;;;;;5054850;28;20522;-77
2021/01/20 11:28:55;;;;;;;1.30;0.80;;;10.10;84.20;;;;;;5072063;28;20047;-76
2021/01/20 11:31:22;;;;;;;1.05;0.65;;;10.10;84.10;;;;;;5112166;28;20036;-76
2021/01/20 11:33:47;;;;;;;1.30;0.73;;;10.10;83.90;;;;;;5092738;28;20089;-76
2021/01/20 11:36:13;;;;;;;1.55;0.70;;;10.10;83.80;;;;;;5093846;28;20044;-76
2021/01/20 11:38:39;;;;;;;1.50;0.80;;;10.20;83.70;;;;;;5093791;28;20039;-76
2021/01/20 11:41:05;;;;;;;1.38;0.60;;;10.20;83.60;;;;;;5112031;28;20039;-75
2021/01/20 11:43:30;;;;;;;1.65;0.88;;;10.10;83.30;;;;;;5112304;28;20088;-76
2021/01/20 11:45:56;;;;;;;1.92;0.90;;;10.20;83.20;;;;;;5111880;28;20040;-76
2021/01/20 11:48:22;;;;;;;1.58;0.80;;;10.20;82.80;;;;;;5111935;28;20092;-76
2021/01/20 11:50:48;;;;;;;1.17;0.82;;;10.20;82.70;;;;;;5112633;28;20032;-76
2021/01/20 11:53:13;;;;;;;1.50;0.80;;;10.20;82.70;;;;;;5093789;28;20122;-76
2021/01/20 11:55:39;;;;;;;2.28;0.82;;;10.30;82.60;;;;;;5112352;28;20063;-77
2021/01/20 11:58:05;;;;;;;1.20;0.70;;;10.30;82.30;;;;;;5112702;28;20044;-77
2021/01/20 12:00:31;;;;;;;1.58;0.88;;;10.30;82.20;;;;;;5112762;28;20040;-76
2021/01/20 12:02:56;;;;;;;1.65;0.98;;;10.30;82.70;;;;;;5113895;28;20040;-75
2021/01/20 12:05:22;;;;;;;1.20;0.80;;;10.30;82.00;;;;;;5094729;28;20047;-75
2021/01/20 12:07:48;;;;;;;0.60;0.50;;;10.40;81.90;;;;;;5112141;28;20391;-76
2021/01/20 12:10:15;;;;;;;1.02;0.68;;;10.40;81.80;;;;;;5115879;28;20059;-77
2021/01/20 12:12:42;;;;;;;1.13;0.63;;;10.40;81.60;;;;;;5099211;28;20074;-77
2021/01/20 12:15:08;;;;;;;1.67;0.82;;;10.40;81.40;;;;;;5118279;28;20486;-79
2021/01/20 12:17:34;;;;;;;1.23;0.90;;;10.40;81.30;;;;;;5100632;28;20467;-79
2021/01/20 12:20:01;;;;;;;1.02;0.70;;;10.30;81.20;;;;;;5123251;28;20042;-79
2021/01/20 12:22:29;;;;;;;1.08;0.80;;;10.40;81.30;;;;;;5100462;28;20047;-79
2021/01/20 12:24:54;;;;;;;2.28;1.00;;;10.20;81.00;;;;;;5105763;28;20043;-78
2021/01/20 12:27:20;;;;;;;1.73;0.80;;;10.30;81.10;;;;;;5121599;28;20042;-79
2021/01/20 12:29:46;;;;;;;1.52;0.77;;;10.30;81.00;;;;;;5070774;28;20071;-78
2021/01/20 12:32:11;;;;;;;1.52;0.82;;;10.20;81.20;;;;;;5098046;28;20441;-78
2021/01/20 12:34:37;;;;;;;2.13;0.82;;;10.20;81.20;;;;;;5120988;28;20407;-78
2021/01/20 12:37:03;;;;;;;1.63;0.88;;;10.10;81.00;;;;;;5118824;28;20040;-78
2021/01/20 12:39:29;;;;;;;1.23;0.80;;;10.20;81.00;;;;;;5081271;28;20437;-78
2021/01/20 12:41:55;;;;;;;1.17;0.63;;;10.20;81.00;;;;;;5119825;28;20557;-79
2021/01/20 12:44:21;;;;;;;1.40;0.73;;;10.20;81.10;;;;;;5100845;28;20038;-78
2021/01/20 12:46:46;;;;;;;1.40;0.77;;;10.10;81.20;;;;;;5085327;28;20047;-79
2021/01/20 12:49:12;;;;;;;1.80;0.90;;;10.00;81.10;;;;;;5083838;28;20044;-78
2021/01/20 12:51:39;;;;;;;1.23;0.77;;;10.00;81.20;;;;;;5121506;28;20032;-78
2021/01/20 12:54:26;;;;;;;0.70;0.52;;;10.00;81.30;;;;;;5098094;28;20517;-79
2021/01/20 12:56:52;;;;;;;1.48;0.70;;;10.00;81.40;;;;;;5082569;28;20035;-76
2021/01/20 12:59:18;;;;;;;0.82;0.80;;;9.90;81.30;;;;;;5079119;28;20069;-79
2021/01/20 13:01:45;;;;;;;1.23;0.80;;;10.00;81.20;;;;;;5035118;28;20041;-79